Etusivu
METAR-TAF:

METAR-TAF

Lentoasemat :

Rovaniemi, Suomi

Rovaniemen lentoasema

Leveyspiiri: 66-34N, Pituuspiiri: 025-50E, korkeus merenpinnasta: 197 m

Tämänhetkinen sää

Tämä raportti tehtiin 21 minuuttia sitten, kello 20.20 UTC
Tuuli 10 kn pohjoisesta/koillisesta
Lämpötila 16°C
Kosteus 68%
Ilmanpaine 1019 hPa
Näkyvyys 10 km tai enemmän
ei pilviä alle 1500 m:ssä eikä cumulonimbus-pilviä

METAR: EFRO 232020Z AUTO 02010KT CAVOK 16/10 Q1019

Aika: 23:41 (20:41 UTC)

Sääennuste

Tämä raportti tehtiin 3 tuntia ja 9 minuuttia sitten, kello 17.32 UTC
Ennuste voimassa 23. päivästä klo 18 UTC - 24. päivään klo 18 UTC
Tuuli 9 kn pohjoisesta/koillisesta
Näkyvyys 10 km tai enemmän
ei pilviä alle 1500 m:ssä eikä cumulonimbus-pilviä

TAF: EFRO 231732Z 2318/2418 02009KT CAVOK

Säähavainnot ja -ennusteet yli 4000 lentoasemalta (METAR- ja TAF-raportit).

Käytössä olevat sääasemat on merkitty karttaan keltaisilla ja punaisilla pisteillä.

Aseta hiiri pisteen päälle nähdäksesi sääaseman nimen.

Klikkaa sitten nähdäksesi säähavainnot ja -ennusteet.

Kartan vaihtaminen: klikkaa mustalla rastilla varustettuja vihreitä pisteitä, niin voit zoomata sisään; viivalla varustettua vihreää pistettä, niin voit zoomata ulos tai vihreitä nuolia, niin pääset viereisille kartoille.


METAR-TAF: